Time;durP1;ratioP1;P1;durP2;ratioP2;P2;SDS_P1;SDS_P2;PMS_P1;PMS_P2;Temp;Humidity;BMP_temperature;BMP_pressure;BME280_temperature;BME280_humidity;BME280_pressure;Samples;Min_cycle;Max_cycle;Signal;HPM_P1;HPM_P2
2022/03/21 00:01:20;;;;;;;10.73;5.53;;;;;;;1.02;100.00;101471.50;5151887;27;20049;-64
2022/03/21 00:03:47;;;;;;;12.27;5.35;;;;;;;0.98;100.00;101461.44;5151464;27;20047;-64
2022/03/21 00:06:14;;;;;;;11.05;4.90;;;;;;;1.01;100.00;101482.56;5151493;27;20529;-64
2022/03/21 00:08:43;;;;;;;12.93;5.18;;;;;;;1.02;100.00;101486.88;5151755;27;20054;-64
2022/03/21 00:11:10;;;;;;;12.05;5.20;;;;;;;0.99;100.00;101488.19;5151337;27;20096;-64
2022/03/21 00:13:37;;;;;;;11.60;5.15;;;;;;;0.99;100.00;101501.69;5151428;27;20050;-63
2022/03/21 00:16:04;;;;;;;11.80;5.25;;;;;;;0.85;100.00;101493.06;5151416;27;20054;-64
2022/03/21 00:18:31;;;;;;;8.32;4.80;;;;;;;0.85;100.00;101511.16;5151151;27;20509;-64
2022/03/21 00:20:57;;;;;;;11.02;5.53;;;;;;;0.81;100.00;101518.13;5151368;27;20422;-64
2022/03/21 00:23:26;;;;;;;8.13;4.55;;;;;;;0.82;100.00;101535.94;5151807;27;20057;-64
2022/03/21 00:25:52;;;;;;;14.48;5.80;;;;;;;0.78;100.00;101542.91;5151058;27;20047;-64
2022/03/21 00:28:18;;;;;;;17.27;5.63;;;;;;;0.72;100.00;101536.56;5151563;27;20502;-64
2022/03/21 00:30:45;;;;;;;9.52;5.28;;;;;;;0.73;100.00;101548.19;5151319;27;20042;-64
2022/03/21 00:33:12;;;;;;;11.50;4.72;;;;;;;0.60;100.00;101543.88;5151177;27;20641;-64
2022/03/21 00:35:39;;;;;;;11.00;5.10;;;;;;;0.47;100.00;101558.50;5151337;27;20475;-64
2022/03/21 00:38:06;;;;;;;7.80;4.28;;;;;;;0.39;100.00;101577.75;5151175;27;20096;-64
2022/03/21 00:40:33;;;;;;;15.27;5.07;;;;;;;0.32;100.00;101614.84;5151305;27;20090;-64
2022/03/21 00:42:59;;;;;;;11.95;5.00;;;;;;;0.32;100.00;101633.72;5151119;27;20111;-63
2022/03/21 00:45:26;;;;;;;10.70;4.97;;;;;;;0.25;100.00;101660.00;5151150;27;20083;-64
2022/03/21 00:47:53;;;;;;;12.73;5.57;;;;;;;0.26;100.00;101675.13;5150861;27;20062;-64
2022/03/21 00:50:22;;;;;;;12.15;5.10;;;;;;;0.15;100.00;101688.38;5151344;27;20054;-64
2022/03/21 00:52:50;;;;;;;10.20;4.40;;;;;;;0.19;100.00;101715.72;5150664;27;20047;-64
2022/03/21 00:55:19;;;;;;;9.63;4.80;;;;;;;0.12;100.00;101723.91;5150378;27;20050;-64
2022/03/21 00:57:46;;;;;;;12.82;4.88;;;;;;;0.13;100.00;101746.31;5150397;27;20521;-64
2022/03/21 01:00:15;;;;;;;12.60;5.47;;;;;;;0.16;100.00;101762.84;5150887;27;20532;-64
2022/03/21 01:02:42;;;;;;;7.20;4.20;;;;;;;0.16;100.00;101775.53;5150984;27;20517;-64
2022/03/21 01:05:09;;;;;;;12.10;4.85;;;;;;;0.17;100.00;101775.31;5154244;27;20050;-64
2022/03/21 01:07:37;;;;;;;14.40;5.07;;;;;;;0.15;100.00;101773.91;5154151;27;20409;-64
2022/03/21 01:10:05;;;;;;;11.30;4.75;;;;;;;0.15;100.00;101774.72;5154402;27;20046;-64
2022/03/21 01:12:32;;;;;;;12.30;5.80;;;;;;;0.17;100.00;101779.91;5154183;27;20053;-63
2022/03/21 01:15:00;;;;;;;10.63;5.70;;;;;;;0.20;100.00;101787.50;5154030;27;20091;-64
2022/03/21 01:17:27;;;;;;;14.10;6.07;;;;;;;0.29;100.00;101796.91;5153940;27;20050;-64
2022/03/21 01:19:53;;;;;;;10.38;4.97;;;;;;;0.25;100.00;101781.41;5153811;27;20071;-64
2022/03/21 01:22:19;;;;;;;7.50;4.55;;;;;;;0.32;100.00;101782.13;5154433;27;20042;-63
2022/03/21 01:24:46;;;;;;;14.82;5.82;;;;;;;0.29;100.00;101786.09;5153770;27;20051;-64
2022/03/21 01:27:12;;;;;;;12.07;5.28;;;;;;;0.29;100.00;101782.59;5153904;27;20046;-63
2022/03/21 01:29:38;;;;;;;9.55;5.15;;;;;;;0.30;100.00;101776.13;5153723;27;20043;-64
2022/03/21 01:32:06;;;;;;;12.95;5.40;;;;;;;0.25;100.00;101770.63;5153916;27;20123;-64
2022/03/21 01:34:32;;;;;;;10.35;5.25;;;;;;;0.23;100.00;101765.44;5153868;27;20057;-64
2022/03/21 01:36:58;;;;;;;10.18;5.57;;;;;;;0.20;100.00;101768.59;5153536;27;20569;-64
2022/03/21 01:39:25;;;;;;;11.38;5.32;;;;;;;0.26;100.00;101770.38;5153663;27;20058;-64
2022/03/21 01:41:52;;;;;;;8.98;5.10;;;;;;;0.20;100.00;101774.84;5153742;27;20507;-64
2022/03/21 01:44:20;;;;;;;14.32;5.25;;;;;;;0.21;100.00;101775.66;5153578;27;20247;-64
2022/03/21 01:46:46;;;;;;;11.25;4.72;;;;;;;0.18;100.00;101763.47;5153499;27;20042;-64
2022/03/21 01:49:14;;;;;;;12.32;4.60;;;;;;;0.12;100.00;101767.06;5153958;27;20107;-64
2022/03/21 01:51:42;;;;;;;9.65;4.85;;;;;;;0.13;100.00;101766.00;5153432;27;20099;-63
2022/03/21 01:56:54;;;;;;;12.00;5.15;;;;;;;0.11;100.00;101767.31;5153844;27;20050;-64
2022/03/21 01:59:21;;;;;;;11.82;5.43;;;;;;;0.08;100.00;101770.47;5153480;27;20106;-64
2022/03/21 02:01:48;;;;;;;13.77;5.47;;;;;;;0.07;100.00;101790.41;5153709;27;20459;-64
2022/03/21 02:04:15;;;;;;;12.07;4.63;;;;;;;0.09;100.00;101793.69;5153598;27;20050;-64
2022/03/21 02:06:42;;;;;;;11.15;5.07;;;;;;;0.03;100.00;101787.34;5153628;27;20110;-64
2022/03/21 02:09:08;;;;;;;9.90;4.70;;;;;;;0.01;100.00;101794.03;5152989;27;20051;-64
2022/03/21 02:11:35;;;;;;;15.00;4.80;;;;;;;-0.09;100.00;101791.91;5153552;27;20095;-63
2022/03/21 02:14:04;;;;;;;12.70;5.47;;;;;;;-0.13;100.00;101801.50;5153470;27;20047;-64
2022/03/21 02:16:32;;;;;;;12.63;5.00;;;;;;;-0.16;100.00;101800.06;5153149;27;20098;-64
2022/03/21 02:19:00;;;;;;;12.80;4.65;;;;;;;-0.20;100.00;101811.53;5153064;27;20051;-64
2022/03/21 02:21:37;;;;;;;8.23;4.90;;;;;;;-0.21;100.00;101820.69;5153362;27;20051;-64
2022/03/21 02:24:10;;;;;;;12.70;5.88;;;;;;;-0.28;100.00;101836.94;5153327;27;20099;-64
2022/03/21 02:26:37;;;;;;;16.20;5.30;;;;;;;-0.30;100.00;101847.97;5153257;27;20046;-64
2022/03/21 02:29:04;;;;;;;12.15;4.72;;;;;;;-0.29;100.00;101864.97;5153375;27;20065;-64
2022/03/21 02:31:32;;;;;;;14.80;5.55;;;;;;;-0.30;100.00;101868.69;5153014;27;20092;-64
2022/03/21 02:34:00;;;;;;;9.05;4.57;;;;;;;-0.27;100.00;101876.31;5153002;27;20061;-64
2022/03/21 02:36:27;;;;;;;10.60;5.80;;;;;;;-0.33;100.00;101880.75;5152757;27;20064;-64
2022/03/21 02:38:54;;;;;;;11.80;5.47;;;;;;;-0.30;100.00;101885.69;5152670;27;20050;-64
2022/03/21 02:41:20;;;;;;;11.85;4.97;;;;;;;-0.30;100.00;101892.94;5152577;27;20046;-64
2022/03/21 02:43:52;;;;;;;11.65;4.78;;;;;;;-0.32;100.00;101893.19;5152442;27;20501;-64
2022/03/21 02:46:19;;;;;;;12.57;5.97;;;;;;;-0.27;100.00;101904.13;5152992;27;20046;-64
2022/03/21 02:48:45;;;;;;;9.70;5.18;;;;;;;-0.30;100.00;101895.63;5152760;27;20051;-64
2022/03/21 02:51:12;;;;;;;11.73;4.60;;;;;;;-0.27;100.00;101890.66;5152706;27;20046;-64
2022/03/21 02:53:40;;;;;;;11.32;5.25;;;;;;;-0.33;100.00;101882.63;5152385;27;20421;-64
2022/03/21 02:56:07;;;;;;;10.38;5.15;;;;;;;-0.39;100.00;101875.44;5152442;27;20046;-64
2022/03/21 02:58:33;;;;;;;10.10;5.00;;;;;;;-0.43;100.00;101882.31;5152322;27;20054;-64
2022/03/21 03:01:07;;;;;;;10.93;5.47;;;;;;;-0.51;100.00;101884.25;5152578;27;20047;-64
2022/03/21 03:03:33;;;;;;;12.25;5.25;;;;;;;-0.43;100.00;101896.63;5152372;27;20068;-64
2022/03/21 03:05:59;;;;;;;11.90;5.53;;;;;;;-0.42;100.00;101892.88;5152802;27;20095;-64
2022/03/21 03:08:25;;;;;;;12.85;5.70;;;;;;;-0.43;100.00;101907.41;5151935;27;20054;-64
2022/03/21 03:10:52;;;;;;;11.10;5.10;;;;;;;-0.43;100.00;101910.13;5152232;27;20561;-63
2022/03/21 03:13:18;;;;;;;12.40;4.88;;;;;;;-0.44;100.00;101910.31;5152267;27;20509;-64
2022/03/21 03:15:44;;;;;;;9.10;5.13;;;;;;;-0.48;100.00;101905.38;5152271;27;20058;-64
2022/03/21 03:18:11;;;;;;;12.18;5.18;;;;;;;-0.56;100.00;101904.88;5152267;27;20051;-64
2022/03/21 03:20:38;;;;;;;9.40;4.50;;;;;;;-0.58;100.00;101905.06;5152019;27;20047;-64
2022/03/21 03:23:06;;;;;;;9.85;5.20;;;;;;;-0.62;100.00;101901.19;5152209;27;20042;-64
2022/03/21 03:25:33;;;;;;;14.10;5.38;;;;;;;-0.60;100.00;101912.56;5152018;27;20181;-64
2022/03/21 03:27:59;;;;;;;15.30;5.82;;;;;;;-0.64;100.00;101915.91;5152252;27;20099;-64
2022/03/21 03:30:25;;;;;;;14.13;5.70;;;;;;;-0.67;100.00;101917.19;5151892;27;20046;-64
2022/03/21 03:32:52;;;;;;;12.38;5.35;;;;;;;-0.61;100.00;101915.47;5151987;27;20505;-64
2022/03/21 03:35:19;;;;;;;9.70;4.97;;;;;;;-0.64;100.00;101924.81;5151621;27;20073;-64
2022/03/21 03:37:46;;;;;;;14.98;5.72;;;;;;;-0.66;100.00;101923.41;5151603;27;20051;-64
2022/03/21 03:40:13;;;;;;;11.07;5.68;;;;;;;-0.67;100.00;101925.25;5152040;27;20054;-64
2022/03/21 03:42:39;;;;;;;10.98;5.50;;;;;;;-0.67;100.00;101927.97;5151582;27;20561;-64
2022/03/21 03:45:07;;;;;;;15.13;5.25;;;;;;;-0.64;100.00;101922.13;5151919;27;20417;-63
2022/03/21 03:47:33;;;;;;;13.05;5.15;;;;;;;-0.68;100.00;101931.72;5151921;27;20057;-64
2022/03/21 03:49:59;;;;;;;11.15;5.88;;;;;;;-0.65;100.00;101933.97;5151589;27;20051;-64
2022/03/21 03:52:26;;;;;;;11.32;5.18;;;;;;;-0.67;100.00;101930.66;5151620;27;20046;-64
2022/03/21 03:54:52;;;;;;;9.00;4.95;;;;;;;-0.65;100.00;101931.28;5151234;27;20047;-64
2022/03/21 03:57:20;;;;;;;10.45;5.30;;;;;;;-0.67;100.00;101927.97;5151449;27;20058;-64
2022/03/21 03:59:47;;;;;;;8.88;4.45;;;;;;;-0.73;100.00;101924.31;5151321;27;20051;-64
2022/03/21 04:02:13;;;;;;;13.77;5.95;;;;;;;-0.68;100.00;101929.00;5151412;27;20047;-64
2022/03/21 04:04:39;;;;;;;12.80;5.88;;;;;;;-0.69;100.00;101927.38;5151383;27;20069;-64
2022/03/21 04:07:06;;;;;;;9.85;5.15;;;;;;;-0.70;100.00;101925.72;5151364;27;20054;-64
2022/03/21 04:09:33;;;;;;;9.38;5.32;;;;;;;-0.78;100.00;101931.41;5151519;27;20058;-64
2022/03/21 04:11:59;;;;;;;13.80;5.72;;;;;;;-0.80;100.00;101933.47;5151413;27;20062;-64
2022/03/21 04:14:26;;;;;;;10.63;4.90;;;;;;;-0.79;100.00;101927.88;5151322;27;20051;-64
2022/03/21 04:16:52;;;;;;;8.82;4.70;;;;;;;-0.84;100.00;101932.28;5151595;27;20516;-64
2022/03/21 04:19:18;;;;;;;9.05;4.88;;;;;;;-0.83;100.00;101936.63;5151094;27;20059;-64
2022/03/21 04:21:45;;;;;;;11.15;5.75;;;;;;;-0.82;100.00;101943.66;5151682;27;20171;-64
2022/03/21 04:24:11;;;;;;;8.95;4.97;;;;;;;-0.82;100.00;101940.97;5151369;27;20553;-64
2022/03/21 04:26:38;;;;;;;12.88;6.05;;;;;;;-0.75;100.00;101947.13;5151346;27;20421;-64
2022/03/21 04:29:05;;;;;;;12.70;5.38;;;;;;;-0.77;100.00;101952.75;5151068;27;20046;-64
2022/03/21 04:31:32;;;;;;;14.25;5.97;;;;;;;-0.69;100.00;101946.25;5151054;27;20498;-64
2022/03/21 04:33:58;;;;;;;11.80;5.38;;;;;;;-0.69;100.00;101945.41;5151156;27;20046;-64
2022/03/21 04:36:25;;;;;;;17.65;6.35;;;;;;;-0.68;100.00;101936.28;5150826;27;20047;-64
2022/03/21 04:38:51;;;;;;;18.25;6.20;;;;;;;-0.60;100.00;101941.38;5153236;27;20065;-64
2022/03/21 04:41:18;;;;;;;15.43;6.35;;;;;;;-0.57;100.00;101938.22;5154381;27;20050;-64
2022/03/21 04:43:45;;;;;;;16.17;6.68;;;;;;;-0.53;100.00;101934.06;5154708;27;20051;-64
2022/03/21 04:46:11;;;;;;;14.05;6.97;;;;;;;-0.51;100.00;101935.47;5154166;27;20062;-64
2022/03/21 04:48:37;;;;;;;14.77;6.88;;;;;;;-0.43;100.00;101953.25;5154550;27;20057;-64
2022/03/21 04:51:03;;;;;;;14.20;6.82;;;;;;;0.33;100.00;101951.06;5154384;27;20050;-64
2022/03/21 04:53:30;;;;;;;13.32;5.70;;;;;;;1.71;100.00;101947.16;5154382;27;20051;-64
2022/03/21 04:55:56;;;;;;;8.95;5.07;;;;;;;2.77;100.00;101915.09;5153500;27;20050;-64
2022/03/21 04:58:22;;;;;;;9.35;5.32;;;;;;;3.54;100.00;101740.75;5154070;27;20051;-61
2022/03/21 05:00:49;;;;;;;11.57;5.07;;;;;;;4.39;100.00;101397.97;5153939;27;20051;-71
2022/03/21 05:03:15;;;;;;;14.20;5.45;;;;;;;5.03;100.00;101022.31;5154289;27;20106;-70
2022/03/21 05:05:42;;;;;;;10.52;5.53;;;;;;;5.61;100.00;100749.50;5154056;27;20047;-70
2022/03/21 05:08:08;;;;;;;9.75;5.20;;;;;;;5.96;100.00;100633.88;5154013;27;20058;-70
2022/03/21 05:10:35;;;;;;;14.38;6.50;;;;;;;6.43;100.00;100606.63;5154232;27;20046;-71
2022/03/21 05:13:01;;;;;;;17.15;6.32;;;;;;;6.89;100.00;100609.25;5153731;27;20046;-71
2022/03/21 05:15:27;;;;;;;12.80;5.80;;;;;;;7.19;100.00;100643.22;5153915;27;20051;-70
2022/03/21 05:17:54;;;;;;;9.55;5.57;;;;;;;7.53;100.00;100664.59;5148648;27;20242;-71
2022/03/21 05:20:21;;;;;;;13.98;5.93;;;;;;;7.81;100.00;100693.72;5133083;28;20506;-70
2022/03/21 05:30:57;;;;;;;14.40;5.88;;;;;;;8.16;100.00;100702.97;5138403;27;20429;-70
2022/03/21 05:31:06;;;;;;;11.05;6.35;;;;;;;8.79;100.00;100772.19;5132698;28;20076;-71
2022/03/21 05:36:21;;;;;;;14.70;6.13;;;;;;;9.25;100.00;100812.03;5133379;28;20053;-66
2022/03/21 05:38:47;;;;;;;15.88;6.50;;;;;;;9.42;100.00;100817.56;5146680;27;20082;-66
2022/03/21 05:41:13;;;;;;;8.50;5.82;;;;;;;9.52;100.00;100830.16;5153419;27;20420;-69
2022/03/21 05:43:40;;;;;;;12.43;6.05;;;;;;;9.82;100.00;100837.47;5153575;27;20481;-67
2022/03/21 05:46:06;;;;;;;11.35;5.82;;;;;;;10.28;100.00;100862.75;5153447;27;20611;-67
2022/03/21 05:48:54;;;;;;;9.18;5.95;;;;;;;10.45;100.00;100894.84;5151227;27;20050;-67
2022/03/21 05:51:23;;;;;;;15.07;6.03;;;;;;;10.64;100.00;100898.06;5144433;27;20077;-68
2022/03/21 05:53:49;;;;;;;8.88;5.55;;;;;;;10.95;100.00;100913.53;5151548;27;20050;-68
2022/03/21 05:56:16;;;;;;;8.13;5.68;;;;;;;11.40;100.00;100932.38;5152796;27;20057;-66
2022/03/21 05:58:43;;;;;;;11.88;6.00;;;;;;;11.58;100.00;100952.34;5150066;27;20051;-69
2022/03/21 06:01:11;;;;;;;10.27;5.97;;;;;;;11.34;100.00;100961.13;5132801;28;20050;-69
2022/03/21 06:03:38;;;;;;;10.65;5.70;;;;;;;11.43;100.00;100956.41;5132401;28;20051;-68
2022/03/21 06:06:04;;;;;;;9.05;5.70;;;;;;;11.52;100.00;100963.50;5136772;27;20052;-64
2022/03/21 06:08:30;;;;;;;7.55;5.18;;;;;;;11.94;100.00;100966.47;5148804;27;20140;-65
2022/03/21 06:11:03;;;;;;;10.93;5.88;;;;;;;12.06;100.00;100984.97;5132929;27;20047;-70
2022/03/21 06:13:31;;;;;;;10.32;6.15;;;;;;;12.17;100.00;100999.19;5133792;27;20439;-65
2022/03/21 06:16:01;;;;;;;15.15;6.18;;;;;;;12.12;100.00;100999.34;5137638;27;20055;-66
2022/03/21 06:18:27;;;;;;;10.25;5.45;;;;;;;12.54;100.00;100997.53;5140432;27;20051;-65
2022/03/21 06:20:54;;;;;;;10.50;5.88;;;;;;;12.81;100.00;101018.22;5144541;27;20046;-68
2022/03/21 06:23:20;;;;;;;13.18;6.10;;;;;;;12.82;100.00;101028.09;5142259;27;20458;-71
2022/03/21 06:25:46;;;;;;;8.60;5.57;;;;;;;13.07;100.00;101031.00;5140040;27;20110;-72
2022/03/21 06:28:13;;;;;;;12.07;6.22;;;;;;;13.34;100.00;101035.16;5132089;28;20055;-70
2022/03/21 06:30:39;;;;;;;11.77;6.13;;;;;;;13.58;100.00;101038.00;5132144;28;20050;-68
2022/03/21 06:33:05;;;;;;;11.40;5.82;;;;;;;13.86;100.00;101048.41;5137487;27;20494;-68
2022/03/21 06:35:31;;;;;;;11.25;6.30;;;;;;;13.99;100.00;101060.28;5147619;27;20047;-68
2022/03/21 06:37:58;;;;;;;13.65;6.28;;;;;;;13.88;100.00;101062.66;5131456;28;20050;-68
2022/03/21 06:40:25;;;;;;;12.82;6.18;;;;;;;13.73;100.00;101060.56;5131659;28;20051;-68
2022/03/21 06:42:51;;;;;;;13.15;6.07;;;;;;;14.01;100.00;101063.50;5131278;28;20135;-68
2022/03/21 06:45:17;;;;;;;13.50;5.63;;;;;;;14.43;100.00;101069.66;5131713;27;20054;-68
2022/03/21 06:47:43;;;;;;;13.00;5.78;;;;;;;14.59;100.00;101084.41;5131416;28;20051;-68
2022/03/21 06:50:10;;;;;;;11.15;5.82;;;;;;;14.88;100.00;101084.50;5131461;28;20597;-69
2022/03/21 06:52:39;;;;;;;13.75;5.00;;;;;;;15.03;100.00;101092.06;5130894;28;20047;-72
2022/03/21 06:55:08;;;;;;;13.45;5.80;;;;;;;15.06;100.00;101092.19;5131185;28;20196;-61
2022/03/21 06:57:34;;;;;;;14.10;6.20;;;;;;;15.34;100.00;101085.88;5131486;28;20055;-73
2022/03/21 07:00:02;;;;;;;14.27;5.47;;;;;;;15.46;100.00;101105.22;5131414;28;20195;-68
2022/03/21 07:02:29;;;;;;;15.98;6.68;;;;;;;15.79;100.00;101100.59;5130578;27;20078;-56
2022/03/21 07:05:49;;;;;;;14.40;6.38;;;;;;;15.98;98.26;101101.53;5211153;27;20858;-66
2022/03/21 07:08:17;;;;;;;13.00;5.85;;;;;;;15.90;98.59;101107.25;5189842;27;20050;-67
2022/03/21 07:10:44;;;;;;;17.17;6.35;;;;;;;16.06;98.49;101104.47;5184942;27;20047;-67
2022/03/21 07:13:11;;;;;;;12.60;5.75;;;;;;;16.09;97.58;101112.06;5169893;27;20058;-67
2022/03/21 07:15:37;;;;;;;14.20;6.00;;;;;;;16.32;97.33;101107.53;5185962;27;20530;-68
2022/03/21 07:18:03;;;;;;;12.38;6.22;;;;;;;16.39;95.91;101112.47;5175062;27;20679;-66
2022/03/21 07:20:30;;;;;;;13.68;6.00;;;;;;;16.81;95.40;101123.00;5170767;27;20046;-66
2022/03/21 07:22:58;;;;;;;18.02;6.93;;;;;;;17.17;93.32;101127.41;5178675;27;20046;-65
2022/03/21 07:25:25;;;;;;;17.88;8.35;;;;;;;17.33;91.48;101138.47;5168310;27;20055;-68
2022/03/21 07:27:52;;;;;;;17.85;8.82;;;;;;;17.28;89.50;101141.50;5168524;27;20055;-66
2022/03/21 07:30:20;;;;;;;14.18;7.55;;;;;;;17.33;89.64;101139.25;5168309;27;20061;-66
2022/03/21 07:32:46;;;;;;;20.77;8.82;;;;;;;17.39;89.11;101132.28;5170894;27;20098;-66
2022/03/21 07:35:13;;;;;;;22.73;10.00;;;;;;;17.63;88.34;101139.50;5179181;27;20056;-68
2022/03/21 07:37:40;;;;;;;54.20;9.25;;;;;;;17.61;94.21;101121.63;5184387;27;20077;-67
2022/03/21 07:40:11;;;;;;;13.85;7.38;;;;;;;17.54;90.17;101135.34;5179124;27;20141;-71
2022/03/21 07:42:37;;;;;;;93.65;62.60;;;;;;;17.42;89.14;101142.59;5176172;27;20068;-72
2022/03/21 07:47:48;;;;;;;28.83;17.60;;;;;;;18.12;88.30;101138.09;5189097;27;20099;-71
2022/03/21 07:50:15;;;;;;;15.07;7.85;;;;;;;18.22;86.83;101145.00;5188882;27;20141;-71
2022/03/21 07:52:42;;;;;;;18.52;6.97;;;;;;;18.44;86.19;101151.75;5188573;27;20138;-54
2022/03/21 07:55:09;;;;;;;12.52;6.65;;;;;;;18.61;85.50;101161.56;5188693;27;20488;-64
2022/03/21 07:57:35;;;;;;;15.73;7.07;;;;;;;18.41;85.12;101155.28;5188945;27;20045;-63
2022/03/21 08:00:02;;;;;;;19.15;7.93;;;;;;;18.53;84.86;101155.09;5188822;27;20045;-73
2022/03/21 08:02:28;;;;;;;15.18;7.22;;;;;;;18.76;84.78;101147.56;5188918;27;20050;-73
2022/03/21 08:04:54;;;;;;;20.55;8.00;;;;;;;18.83;85.15;101151.63;5188231;27;20057;-61
2022/03/21 08:07:20;;;;;;;13.80;6.95;;;;;;;18.85;84.09;101155.63;5188759;27;20049;-65
2022/03/21 08:09:47;;;;;;;14.18;7.75;;;;;;;18.77;83.00;101153.94;5188748;27;20050;-66
2022/03/21 08:12:14;;;;;;;16.10;9.52;;;;;;;19.17;83.24;101147.00;5188798;27;20053;-65
2022/03/21 08:14:40;;;;;;;11.23;5.05;;;;;;;19.39;81.82;101157.25;5188619;27;20050;-65
2022/03/21 08:17:06;;;;;;;9.25;4.65;;;;;;;19.32;80.61;101161.88;5174973;27;20053;-64
2022/03/21 08:19:32;;;;;;;12.38;5.22;;;;;;;18.99;81.85;101166.16;5174223;27;20103;-64
2022/03/21 08:21:59;;;;;;;6.78;4.20;;;;;;;18.99;82.63;101163.38;5174341;27;20106;-64
2022/03/21 08:24:25;;;;;;;10.27;5.03;;;;;;;18.98;82.48;101159.00;5174201;27;20046;-64
2022/03/21 08:26:53;;;;;;;12.40;4.40;;;;;;;18.89;82.45;101162.03;5171976;27;20050;-63
2022/03/21 08:29:21;;;;;;;8.68;5.15;;;;;;;18.85;83.28;101161.19;5168679;27;20098;-62
2022/03/21 08:31:47;;;;;;;14.95;4.95;;;;;;;18.89;83.25;101161.25;5174380;27;20122;-62
2022/03/21 08:34:13;;;;;;;11.23;5.72;;;;;;;19.12;83.11;101155.66;5173371;27;20058;-63
2022/03/21 08:36:39;;;;;;;13.10;5.22;;;;;;;19.24;82.48;101153.44;5174272;27;20474;-65
2022/03/21 08:39:06;;;;;;;12.40;5.15;;;;;;;19.16;82.92;101148.97;5173833;27;20046;-65
2022/03/21 08:41:32;;;;;;;8.82;4.82;;;;;;;19.25;82.51;101148.69;5174114;27;20050;-63
2022/03/21 08:43:58;;;;;;;6.78;3.90;;;;;;;18.87;82.70;101160.84;5173860;27;20056;-64
2022/03/21 08:46:26;;;;;;;28.33;5.53;;;;;;;18.65;84.43;101145.75;5169451;27;20043;-63
2022/03/21 08:51:37;;;;;;;;;;;;;;;18.78;84.46;101145.22;5164823;27;20171;-64
2022/03/21 08:54:04;;;;;;;8.07;4.15;;;;;;;18.78;85.09;101150.78;5173842;27;19977;-64
2022/03/21 08:56:30;;;;;;;7.75;4.30;;;;;;;18.49;84.41;101143.94;5166526;27;20130;-64
2022/03/21 08:58:57;;;;;;;7.65;4.32;;;;;;;18.46;85.49;101149.41;5174029;27;20054;-64
2022/03/21 09:01:23;;;;;;;9.25;4.85;;;;;;;18.05;86.78;101137.97;5174257;27;20102;-65
2022/03/21 09:03:51;;;;;;;9.50;4.15;;;;;;;18.07;87.85;101132.84;5174091;27;20042;-66
2022/03/21 09:06:20;;;;;;;8.32;4.82;;;;;;;18.23;87.26;101128.00;5174285;27;20527;-65
2022/03/21 09:08:46;;;;;;;8.77;4.75;;;;;;;18.54;85.57;101138.03;5173650;27;20092;-66
2022/03/21 09:11:13;;;;;;;10.23;4.72;;;;;;;18.07;89.01;101127.31;5174033;27;20069;-68
2022/03/21 09:13:40;;;;;;;7.13;4.20;;;;;;;17.80;88.08;101129.97;5173800;27;20153;-67
2022/03/21 09:16:06;;;;;;;9.60;3.80;;;;;;;17.67;89.36;101120.16;5173755;27;20389;-65
2022/03/21 09:18:32;;;;;;;5.63;3.13;;;;;;;17.74;89.41;101123.06;5170403;27;20416;-66
2022/03/21 09:20:59;;;;;;;6.78;4.40;;;;;;;18.08;88.50;101117.78;5173556;27;20042;-66
2022/03/21 09:23:25;;;;;;;6.78;4.25;;;;;;;18.16;88.16;101113.16;5164459;27;20455;-64
2022/03/21 09:25:52;;;;;;;6.47;4.07;;;;;;;17.96;87.72;101120.72;5153601;27;20488;-64
2022/03/21 09:28:18;;;;;;;8.68;4.35;;;;;;;17.74;87.97;101111.97;5151845;27;20066;-68
2022/03/21 09:30:45;;;;;;;11.57;4.60;;;;;;;17.83;88.58;101104.25;5163258;27;20054;-67
2022/03/21 09:33:11;;;;;;;6.05;4.13;;;;;;;17.53;91.12;101100.47;5170966;27;20042;-67
2022/03/21 09:35:38;;;;;;;8.43;3.28;;;;;;;16.75;90.73;101099.53;5163110;27;20429;-65
2022/03/21 09:38:05;;;;;;;6.40;3.60;;;;;;;16.54;92.28;101097.03;5161636;27;20053;-65
2022/03/21 09:40:31;;;;;;;5.85;3.30;;;;;;;16.47;93.77;101087.38;5155547;27;20070;-64
2022/03/21 09:42:58;;;;;;;9.35;3.38;;;;;;;16.62;94.84;101074.66;5161221;27;20053;-65
2022/03/21 09:45:24;;;;;;;10.27;3.50;;;;;;;16.65;93.87;101076.72;5160359;27;20057;-65
2022/03/21 09:48:11;;;;;;;4.63;3.03;;;;;;;16.80;91.80;101090.94;5159307;27;20428;-65
2022/03/21 09:50:40;;;;;;;9.68;4.03;;;;;;;17.09;91.92;101081.28;5151784;27;20050;-64
2022/03/21 09:53:08;;;;;;;9.35;3.78;;;;;;;17.34;91.47;101079.06;5152133;27;20099;-65
2022/03/21 09:55:34;;;;;;;7.93;3.35;;;;;;;17.36;90.75;101074.78;5158062;27;20057;-66
2022/03/21 09:58:01;;;;;;;9.85;3.33;;;;;;;16.91;91.79;101067.84;5173117;27;20421;-65
2022/03/21 10:00:28;;;;;;;8.43;3.28;;;;;;;17.03;90.86;101069.72;5172825;27;20057;-65
2022/03/21 10:02:56;;;;;;;7.82;3.63;;;;;;;16.64;92.65;101068.78;5172737;27;20064;-65
2022/03/21 10:05:36;;;;;;;7.63;3.40;;;;;;;16.80;93.85;101054.94;5172437;27;20054;-66
2022/03/21 10:08:15;;;;;;;9.57;3.65;;;;;;;16.83;92.89;101057.78;5172461;27;20047;-66
2022/03/21 10:10:50;;;;;;;4.60;3.40;;;;;;;16.84;92.21;101062.16;5170327;27;20053;-66
2022/03/21 10:13:17;;;;;;;11.02;3.70;;;;;;;17.13;90.53;101063.59;5171762;27;20106;-66
2022/03/21 10:15:44;;;;;;;5.65;2.42;;;;;;;17.08;88.13;101072.19;5172475;27;20064;-67
2022/03/21 10:18:12;;;;;;;5.50;2.35;;;;;;;16.78;86.67;101079.41;5172301;27;20058;-67
2022/03/21 10:20:39;;;;;;;9.18;2.45;;;;;;;16.41;87.86;101065.84;5172245;27;20098;-64
2022/03/21 10:23:17;;;;;;;8.63;3.30;;;;;;;16.26;89.56;101064.72;5172472;27;20046;-63
2022/03/21 10:25:43;;;;;;;3.28;1.95;;;;;;;16.31;88.63;101058.09;5170976;27;20050;-62
2022/03/21 10:28:10;;;;;;;6.38;2.75;;;;;;;16.17;89.76;101058.53;5151556;27;20046;-63
2022/03/21 10:30:43;;;;;;;7.15;2.33;;;;;;;16.03;91.62;101061.75;5151301;27;20050;-62
2022/03/21 10:33:09;;;;;;;6.70;2.22;;;;;;;16.22;92.06;101056.28;5151278;27;20115;-62
2022/03/21 10:35:45;;;;;;;7.68;3.10;;;;;;;16.39;94.44;101055.16;5151167;27;20189;-62
2022/03/21 10:38:11;;;;;;;6.05;2.50;;;;;;;16.58;nan;101059.13;5151172;27;20514;-62
2022/03/21 10:40:43;;;;;;;5.00;2.28;;;;;;;16.50;90.17;101055.41;5151148;27;20055;-63
2022/03/21 10:43:11;;;;;;;5.45;2.53;;;;;;;16.33;93.21;101056.59;5151351;27;20123;-63
2022/03/21 10:45:43;;;;;;;4.30;2.28;;;;;;;16.56;91.85;101053.16;5151263;27;20429;-64
2022/03/21 10:48:12;;;;;;;5.88;2.53;;;;;;;16.44;90.58;101063.16;5150943;27;20050;-64
2022/03/21 10:50:41;;;;;;;8.25;2.83;;;;;;;16.65;90.57;101054.56;5150849;27;20095;-64
2022/03/21 10:53:11;;;;;;;5.90;2.40;;;;;;;16.95;88.14;101062.38;5150989;27;20091;-64
2022/03/21 10:55:37;;;;;;;6.60;2.60;;;;;;;17.19;89.58;101050.22;5149063;27;20149;-64
2022/03/21 10:58:05;;;;;;;9.18;3.17;;;;;;;17.25;87.42;101059.06;5150584;27;20425;-63
2022/03/21 11:00:32;;;;;;;8.27;2.65;;;;;;;17.34;86.59;101066.00;5151130;27;20046;-64
2022/03/21 11:03:01;;;;;;;10.90;2.42;;;;;;;17.29;86.79;101060.75;5149020;27;20043;-64
2022/03/21 11:05:30;;;;;;;6.38;2.50;;;;;;;17.28;85.61;101069.44;5151051;27;20053;-64
2022/03/21 11:07:57;;;;;;;7.47;2.42;;;;;;;17.24;85.74;101068.56;5151108;27;20054;-64
2022/03/21 11:10:25;;;;;;;6.10;2.60;;;;;;;16.76;86.41;101059.56;5150655;27;20139;-65
2022/03/21 11:12:52;;;;;;;5.07;2.40;;;;;;;16.90;87.29;101048.84;5150924;27;20088;-64
2022/03/21 11:15:18;;;;;;;5.25;2.17;;;;;;;16.90;84.84;101055.19;5150664;27;20137;-64
2022/03/21 11:17:45;;;;;;;7.90;2.55;;;;;;;16.65;86.75;101051.00;5150800;27;20061;-66
2022/03/21 11:20:13;;;;;;;7.05;3.08;;;;;;;16.52;87.72;101038.41;5150831;27;20500;-66
2022/03/21 11:22:41;;;;;;;7.03;2.97;;;;;;;16.25;89.93;101038.19;5152696;27;20046;-67
2022/03/21 11:25:09;;;;;;;6.70;2.70;;;;;;;16.05;92.78;101022.66;5171354;27;20050;-67
2022/03/21 11:27:50;;;;;;;7.63;3.00;;;;;;;15.58;94.82;101017.84;5171307;27;20050;-67
2022/03/21 11:30:24;;;;;;;10.00;2.75;;;;;;;15.07;97.44;101002.63;5171403;27;20054;-66
2022/03/21 11:32:55;;;;;;;;;;;;;;;14.89;98.11;100998.53;5171931;27;20050;-67
2022/03/21 11:35:25;;;;;;;6.15;2.05;;;;;;;14.65;100.00;100995.84;5168956;27;19923;-66